KFLG

Details ICAO KFLG (FLG)
Name Flagstaff Pulliam
Region United States
Timezone America/Phoenix (UTC-7.0)
Plans Departing 65
Arriving 90
Stats Elevation 7,011 ft / 2,137 m (AMSL)
Location 35.138455° -111.671215°
Runways 1
Magnetic Variation 10.421° E
Sunrise 2018-05-27 12:16:56 UTC / 2018-05-27 05:16:56 Local
Sunset 2018-05-28 02:33:42 UTC / 2018-05-27 19:33:42 Local
Advertisement - Login to hide

Runways

ID Width Length Bearing (true) Bearing (mag) Surface Threshold Offset Overrun Length
03 150 ft / 46 m 7,003 ft / 2,135 m 41.03° 30.61° Asphalt 0 ft / 0 m 0 ft / 0 m
21 150 ft / 46 m 7,003 ft / 2,135 m 221.04° 210.62° Asphalt 0 ft / 0 m 0 ft / 0 m

Approach Navaids

Runway Type Ident Frequency Range Bearing (true) Bearing (mag) Slope Elevation
21 Localiser IFLG 110.50 MHz 18 nm / 33 km 226.05° 215.63° - 7,011 ft / 2,137 m (AMSL)
21 Glidescope IFLG 110.50 MHz 10 nm / 19 km 221.04° 210.62° 3.00° 6,998 ft / 2,133 m (AMSL)

Map

Weather


0- 5 10 15 20 25 30 35+ Temperature / ° C

Clouds and Precipitation
Forecast for 2018-05-28 00:00 UTC. Updated 6 hours ago

Ground ~20,000 ft ~40,000 ft Winds

METAR

Not found

TAF

KFLG 272326Z 2800/2824 23010G16KT P6SM FEW100 FM280200 VRB03KT P6SM SKC FM281800 23010KT P6SM SKC

Frequencies

Recorded 125.80 MHz ATIS
Unicom 122.95 MHz UNICOM
Tower 134.55 MHz TWR
Unicom 134.55 MHz CTAF
Ground 121.90 MHz GND
Warning: Do not use this data for real-world aviation or navigation. No guarantee of current accuracy is given.